createdAt,value
2023-06-27T00:01:58.701Z,100.00
2023-06-27T00:04:29.842Z,100.00
2023-06-27T00:06:58.583Z,100.00
2023-06-27T00:09:25.938Z,100.00
2023-06-27T00:11:53.236Z,100.00
2023-06-27T00:14:21.010Z,100.00
2023-06-27T00:16:48.450Z,100.00
2023-06-27T00:19:15.798Z,100.00
2023-06-27T00:21:43.128Z,100.00
2023-06-27T00:24:11.292Z,100.00
2023-06-27T00:26:38.725Z,100.00
2023-06-27T00:29:07.078Z,100.00
2023-06-27T00:31:35.415Z,100.00
2023-06-27T00:34:02.929Z,100.00
2023-06-27T00:36:30.417Z,100.00
2023-06-27T00:38:57.877Z,100.00
2023-06-27T00:41:25.232Z,100.00
2023-06-27T00:43:52.692Z,100.00
2023-06-27T00:46:41.935Z,100.00
2023-06-27T00:49:11.612Z,100.00
2023-06-27T00:51:43.090Z,100.00
2023-06-27T00:54:11.873Z,100.00
2023-06-27T00:56:40.873Z,100.00
2023-06-27T00:59:08.360Z,100.00
2023-06-27T01:01:36.238Z,100.00
2023-06-27T01:04:04.977Z,100.00
2023-06-27T01:06:47.990Z,100.00
2023-06-27T01:09:30.183Z,100.00
2023-06-27T01:12:04.642Z,100.00
2023-06-27T01:14:35.777Z,100.00
2023-06-27T01:17:03.773Z,100.00
2023-06-27T01:19:34.067Z,100.00
2023-06-27T01:22:06.620Z,100.00
2023-06-27T01:24:34.227Z,100.00
2023-06-27T01:27:02.080Z,100.00
2023-06-27T01:29:30.458Z,100.00
2023-06-27T01:32:10.438Z,100.00
2023-06-27T01:35:06.742Z,100.00
2023-06-27T01:37:39.915Z,100.00
2023-06-27T01:40:12.089Z,100.00
2023-06-27T01:42:42.652Z,100.00
2023-06-27T01:45:12.597Z,100.00
2023-06-27T01:47:43.122Z,100.00
2023-06-27T01:50:13.235Z,100.00
2023-06-27T01:52:41.368Z,100.00
2023-06-27T01:55:10.082Z,100.00
2023-06-27T01:57:37.832Z,100.00
2023-06-27T02:00:08.257Z,100.00
2023-06-27T02:02:45.750Z,100.00
2023-06-27T02:05:13.287Z,100.00
2023-06-27T02:07:40.651Z,100.00
2023-06-27T02:10:11.273Z,100.00
2023-06-27T02:12:40.386Z,100.00
2023-06-27T02:15:08.491Z,100.00
2023-06-27T02:17:36.005Z,100.00
2023-06-27T02:20:03.921Z,100.00
2023-06-27T02:22:31.347Z,100.00
2023-06-27T02:24:59.268Z,100.00
2023-06-27T02:27:26.593Z,100.00
2023-06-27T02:29:55.013Z,100.00
2023-06-27T02:32:22.499Z,100.00
2023-06-27T02:34:50.535Z,100.00
2023-06-27T02:37:17.912Z,100.00
2023-06-27T02:39:45.348Z,100.00
2023-06-27T02:42:13.216Z,100.00
2023-06-27T02:44:40.559Z,100.00
2023-06-27T02:47:07.853Z,100.00
2023-06-27T02:49:35.124Z,100.00
2023-06-27T02:52:02.431Z,100.00
2023-06-27T02:54:29.787Z,100.00
2023-06-27T02:56:58.573Z,100.00
2023-06-27T02:59:26.986Z,100.00
2023-06-27T03:01:58.527Z,100.00
2023-06-27T03:04:27.055Z,100.00
2023-06-27T03:06:54.979Z,100.00
2023-06-27T03:09:22.363Z,100.00
2023-06-27T03:11:49.940Z,100.00
2023-06-27T03:14:23.303Z,100.00
2023-06-27T03:16:55.603Z,100.00
2023-06-27T03:19:38.219Z,100.00
2023-06-27T03:22:07.402Z,100.00
2023-06-27T03:24:34.814Z,100.00
2023-06-27T03:27:02.114Z,100.00
2023-06-27T03:29:31.278Z,100.00
2023-06-27T03:31:58.960Z,100.00
2023-06-27T03:34:28.784Z,100.00
2023-06-27T03:36:57.569Z,100.00
2023-06-27T03:39:24.917Z,100.00
2023-06-27T03:41:53.257Z,100.00
2023-06-27T03:44:21.920Z,100.00
2023-06-27T03:46:49.827Z,100.00
2023-06-27T03:49:18.463Z,100.00
2023-06-27T03:51:46.788Z,100.00
2023-06-27T03:54:14.302Z,100.00
2023-06-27T03:56:41.620Z,100.00
2023-06-27T03:59:09.054Z,100.00
2023-06-27T04:01:36.368Z,100.00
2023-06-27T04:04:03.976Z,100.00
2023-06-27T04:06:31.553Z,100.00
2023-06-27T04:08:58.985Z,100.00
2023-06-27T04:11:26.268Z,100.00
2023-06-27T04:14:03.510Z,100.00
2023-06-27T04:16:30.896Z,100.00
2023-06-27T04:18:58.443Z,100.00
2023-06-27T04:21:27.905Z,100.00
2023-06-27T04:23:57.525Z,100.00
2023-06-27T04:26:26.586Z,100.00
2023-06-27T04:28:54.061Z,100.00
2023-06-27T04:31:23.023Z,100.00
2023-06-27T04:33:50.563Z,100.00
2023-06-27T04:36:21.910Z,100.00
2023-06-27T04:38:49.927Z,100.00
2023-06-27T04:41:17.584Z,100.00
2023-06-27T04:43:46.530Z,100.00
2023-06-27T04:46:14.113Z,100.00
2023-06-27T04:48:42.429Z,100.00
2023-06-27T04:51:09.699Z,100.00
2023-06-27T04:53:37.260Z,100.00
2023-06-27T04:56:05.545Z,100.00
2023-06-27T04:58:34.140Z,98.84
2023-06-27T05:01:01.974Z,98.09
2023-06-27T05:03:29.331Z,95.87
2023-06-27T05:05:56.632Z,93.73
2023-06-27T05:08:24.293Z,91.25
2023-06-27T05:10:51.764Z,88.58
2023-06-27T05:13:19.261Z,87.14
2023-06-27T05:15:50.884Z,86.15
2023-06-27T05:18:18.684Z,83.39
2023-06-27T05:20:46.965Z,81.85
2023-06-27T05:23:14.323Z,81.01
2023-06-27T05:25:42.527Z,81.05
2023-06-27T05:28:10.362Z,79.21
2023-06-27T05:30:37.782Z,77.56
2023-06-27T05:33:11.407Z,77.58
2023-06-27T05:35:39.236Z,76.03
2023-06-27T05:38:07.471Z,75.30
2023-06-27T05:40:35.249Z,73.15
2023-06-27T05:43:02.829Z,71.19
2023-06-27T05:45:30.179Z,70.42
2023-06-27T05:47:57.517Z,69.76
2023-06-27T05:50:26.251Z,69.24
2023-06-27T05:52:53.685Z,67.46
2023-06-27T05:55:21.307Z,66.72
2023-06-27T05:57:48.637Z,65.75
2023-06-27T06:00:17.103Z,63.38
2023-06-27T06:02:49.059Z,62.17
2023-06-27T06:05:18.974Z,60.77
2023-06-27T06:07:47.068Z,60.30
2023-06-27T06:10:15.533Z,61.21
2023-06-27T06:12:44.418Z,61.55
2023-06-27T06:15:13.471Z,62.58
2023-06-27T06:17:41.276Z,65.01
2023-06-27T06:20:10.937Z,66.21
2023-06-27T06:22:39.183Z,67.42
2023-06-27T06:25:06.916Z,69.73
2023-06-27T06:27:34.294Z,70.70
2023-06-27T06:30:01.927Z,71.91
2023-06-27T06:32:29.579Z,72.25
2023-06-27T06:34:58.124Z,71.13
2023-06-27T06:37:25.806Z,72.32
2023-06-27T06:39:53.212Z,73.32
2023-06-27T06:42:20.503Z,73.91
2023-06-27T06:44:49.631Z,74.58
2023-06-27T06:47:17.011Z,76.13
2023-06-27T06:49:44.578Z,77.63
2023-06-27T06:52:11.865Z,78.05
2023-06-27T06:54:40.069Z,79.89
2023-06-27T06:57:08.085Z,80.13
2023-06-27T06:59:35.400Z,77.49
2023-06-27T07:02:02.695Z,78.19
2023-06-27T07:04:30.064Z,80.37
2023-06-27T07:06:57.692Z,82.39
2023-06-27T07:09:25.078Z,83.57
2023-06-27T07:11:52.598Z,85.01
2023-06-27T07:14:19.987Z,85.51
2023-06-27T07:16:47.348Z,84.71
2023-06-27T07:19:14.754Z,81.08
2023-06-27T07:21:42.308Z,79.55
2023-06-27T07:24:09.737Z,78.73
2023-06-27T07:26:37.080Z,77.38
2023-06-27T07:29:04.481Z,77.40
2023-06-27T07:31:31.919Z,78.03
2023-06-27T07:33:59.305Z,77.79
2023-06-27T07:36:26.755Z,77.58
2023-06-27T07:38:54.207Z,77.06
2023-06-27T07:41:22.866Z,76.97
2023-06-27T07:43:50.269Z,76.48
2023-06-27T07:46:17.677Z,76.49
2023-06-27T07:48:44.975Z,75.47
2023-06-27T07:51:12.570Z,76.74
2023-06-27T07:53:39.973Z,76.65
2023-06-27T07:56:07.758Z,75.52
2023-06-27T07:58:35.161Z,73.78
2023-06-27T08:01:02.974Z,74.98
2023-06-27T08:03:33.013Z,74.87
2023-06-27T08:06:04.781Z,73.58
2023-06-27T08:08:32.202Z,74.24
2023-06-27T08:10:59.851Z,75.07
2023-06-27T08:13:28.507Z,76.62
2023-06-27T08:15:56.079Z,76.88
2023-06-27T08:18:23.466Z,76.18
2023-06-27T08:20:50.910Z,76.91
2023-06-27T08:23:19.779Z,77.66
2023-06-27T08:25:47.249Z,77.02
2023-06-27T08:28:14.957Z,77.68
2023-06-27T08:30:42.568Z,76.40
2023-06-27T08:33:10.147Z,78.03
2023-06-27T08:35:37.881Z,77.86
2023-06-27T08:38:05.240Z,78.30
2023-06-27T08:40:38.760Z,79.23
2023-06-27T08:43:07.981Z,80.84
2023-06-27T08:45:38.323Z,79.50
2023-06-27T08:48:10.863Z,75.81
2023-06-27T10:17:46.512Z,61.66
2023-06-27T10:20:14.551Z,62.42
2023-06-27T10:22:45.747Z,61.20
2023-06-27T10:25:13.737Z,61.60
2023-06-27T10:27:44.113Z,61.39
2023-06-27T10:30:20.732Z,61.74
2023-06-27T10:32:49.297Z,62.10
2023-06-27T10:35:27.747Z,61.36
2023-06-27T10:38:16.990Z,60.84
2023-06-27T10:41:13.373Z,60.80
2023-06-27T10:43:46.680Z,62.83
2023-06-27T10:46:25.261Z,61.42
2023-06-27T10:48:57.408Z,61.53
2023-06-27T10:51:33.648Z,62.72
2023-06-27T10:54:12.828Z,61.43
2023-06-27T10:56:41.924Z,61.53
2023-06-27T10:59:20.389Z,61.37
2023-06-27T11:01:50.811Z,62.98
2023-06-27T11:04:22.557Z,63.80
2023-06-27T11:06:50.277Z,62.22
2023-06-27T11:09:19.056Z,61.81
2023-06-27T11:12:17.243Z,61.45
2023-06-27T11:14:49.240Z,62.03
2023-06-27T11:17:18.906Z,62.83
2023-06-27T11:19:47.367Z,64.07
2023-06-27T11:22:15.808Z,63.35
2023-06-27T11:24:43.258Z,62.87
2023-06-27T11:27:10.603Z,63.50
2023-06-27T11:29:37.872Z,63.60
2023-06-27T11:32:06.190Z,64.81
2023-06-27T11:34:33.734Z,67.28
2023-06-27T11:37:01.040Z,67.64
2023-06-27T11:39:28.341Z,67.00
2023-06-27T11:41:56.085Z,67.22
2023-06-27T11:44:32.213Z,69.20
2023-06-27T11:46:59.859Z,71.05
2023-06-27T11:49:29.687Z,71.13
2023-06-27T11:51:59.733Z,72.63
2023-06-27T11:54:27.203Z,73.58
2023-06-27T11:57:01.409Z,69.81
2023-06-27T11:59:33.019Z,70.41
2023-06-27T12:02:00.429Z,72.19
2023-06-27T12:04:27.771Z,74.01
2023-06-27T12:06:55.249Z,74.66
2023-06-27T12:09:25.322Z,75.96
2023-06-27T12:11:58.700Z,77.74
2023-06-27T12:14:27.261Z,78.27
2023-06-27T12:16:55.031Z,78.73
2023-06-27T12:19:23.800Z,77.97
2023-06-27T12:21:53.872Z,78.83
2023-06-27T12:24:21.517Z,79.24
2023-06-27T12:26:49.150Z,77.85
2023-06-27T12:29:18.247Z,77.08
2023-06-27T12:31:47.564Z,77.66
2023-06-27T12:34:15.053Z,78.97
2023-06-27T12:36:42.579Z,79.00
2023-06-27T12:39:09.879Z,78.82
2023-06-27T12:41:38.491Z,78.86
2023-06-27T12:44:08.039Z,77.74
2023-06-27T12:46:37.094Z,77.93
2023-06-27T12:49:04.410Z,77.67
2023-06-27T12:51:31.893Z,76.02
2023-06-27T12:53:59.219Z,75.30
2023-06-27T12:56:26.623Z,75.28
2023-06-27T12:58:54.677Z,73.63
2023-06-27T13:01:25.347Z,73.60
2023-06-27T13:03:53.537Z,73.68
2023-06-27T13:06:21.062Z,75.19
2023-06-27T13:08:48.434Z,75.73
2023-06-27T13:11:16.570Z,75.77
2023-06-27T13:13:44.000Z,77.54
2023-06-27T13:18:41.724Z,77.79
2023-06-27T13:21:08.991Z,76.45
2023-06-27T13:23:37.460Z,76.75
2023-06-27T13:26:06.221Z,77.61
2023-06-27T13:28:33.605Z,77.76
2023-06-27T13:31:00.975Z,78.53
2023-06-27T13:33:28.428Z,78.58
2023-06-27T13:35:56.371Z,77.72
2023-06-27T13:38:24.468Z,77.79
2023-06-27T13:40:52.116Z,76.12
2023-06-27T13:43:19.414Z,75.25
2023-06-27T13:45:48.061Z,75.28
2023-06-27T13:48:15.734Z,75.54
2023-06-27T13:50:43.213Z,76.00
2023-06-27T13:53:10.732Z,76.41
2023-06-27T13:55:38.242Z,75.56
2023-06-27T13:58:05.595Z,74.78
2023-06-27T14:00:34.180Z,75.62
2023-06-27T14:03:01.785Z,76.33
2023-06-27T14:05:33.927Z,77.23
2023-06-27T14:08:01.249Z,76.89
2023-06-27T14:10:31.549Z,77.98
2023-06-27T14:13:01.866Z,78.69
2023-06-27T14:15:30.911Z,79.78
2023-06-27T14:18:03.353Z,80.38
2023-06-27T14:20:34.436Z,80.77
2023-06-27T14:23:03.996Z,82.23
2023-06-27T14:25:31.552Z,82.41
2023-06-27T14:27:59.421Z,83.90
2023-06-27T14:30:26.834Z,84.00
2023-06-27T14:32:54.493Z,84.41
2023-06-27T14:35:22.009Z,85.16
2023-06-27T14:37:49.480Z,86.13
2023-06-27T14:40:18.442Z,87.11
2023-06-27T14:42:45.752Z,87.35
2023-06-27T14:45:13.274Z,88.97
2023-06-27T14:47:40.746Z,90.29
2023-06-27T14:50:08.340Z,91.08
2023-06-27T14:52:35.710Z,92.08
2023-06-27T14:55:03.439Z,92.45
2023-06-27T14:57:31.256Z,92.71
2023-06-27T14:59:58.566Z,92.92
2023-06-27T15:02:26.190Z,92.88
2023-06-27T15:05:06.129Z,92.86
2023-06-27T15:07:35.605Z,92.79
2023-06-27T15:10:03.503Z,92.65
2023-06-27T15:12:33.666Z,93.42
2023-06-27T15:15:04.018Z,93.26
2023-06-27T15:17:32.717Z,93.65
2023-06-27T15:20:01.101Z,93.81
2023-06-27T15:22:29.912Z,93.74
2023-06-27T15:24:57.447Z,94.19
2023-06-27T15:27:24.906Z,94.55
2023-06-27T15:29:52.451Z,94.90
2023-06-27T15:32:20.855Z,94.82
2023-06-27T15:34:48.277Z,94.73
2023-06-27T15:37:15.634Z,94.26
2023-06-27T15:39:43.003Z,94.00
2023-06-27T15:42:10.398Z,93.92
2023-06-27T15:44:41.881Z,93.28
2023-06-27T15:49:40.354Z,93.68
2023-06-27T15:52:08.691Z,92.96
2023-06-27T15:54:36.414Z,93.53
2023-06-27T15:57:04.691Z,93.95
2023-06-27T15:59:32.085Z,94.07
2023-06-27T16:01:59.444Z,92.86
2023-06-27T16:04:28.067Z,92.70
2023-06-27T16:06:56.821Z,92.93
2023-06-27T16:09:24.505Z,93.38
2023-06-27T16:11:53.404Z,93.65
2023-06-27T16:14:20.814Z,93.89
2023-06-27T16:16:48.253Z,93.60
2023-06-27T16:19:15.682Z,93.99
2023-06-27T16:21:43.292Z,93.81
2023-06-27T16:24:10.860Z,93.91
2023-06-27T16:26:38.260Z,93.85
2023-06-27T16:29:07.535Z,94.14
2023-06-27T16:31:34.867Z,94.48
2023-06-27T16:34:02.557Z,94.80
2023-06-27T16:36:33.115Z,95.08
2023-06-27T16:39:00.484Z,95.52
2023-06-27T16:41:27.801Z,96.35
2023-06-27T16:43:55.579Z,97.16
2023-06-27T16:46:23.234Z,98.00
2023-06-27T16:48:50.612Z,99.04
2023-06-27T16:51:17.928Z,100.00
2023-06-27T16:53:46.314Z,100.00
2023-06-27T16:56:13.680Z,100.00
2023-06-27T16:58:41.207Z,100.00
2023-06-27T17:01:08.550Z,100.00
2023-06-27T17:03:36.180Z,100.00
2023-06-27T17:06:03.710Z,100.00
2023-06-27T17:08:31.108Z,100.00
2023-06-27T17:11:00.478Z,100.00
2023-06-27T17:13:28.291Z,100.00
2023-06-27T17:15:57.066Z,100.00
2023-06-27T17:18:24.393Z,100.00
2023-06-27T17:20:54.884Z,100.00
2023-06-27T17:23:23.190Z,100.00
2023-06-27T17:25:52.609Z,100.00
2023-06-27T17:28:20.308Z,100.00
2023-06-27T17:30:50.189Z,100.00
2023-06-27T17:33:17.531Z,100.00
2023-06-27T17:35:44.898Z,100.00
2023-06-27T17:38:12.361Z,100.00
2023-06-27T17:40:40.182Z,100.00
2023-06-27T17:43:08.998Z,100.00
2023-06-27T17:45:36.435Z,100.00
2023-06-27T17:48:04.218Z,100.00
2023-06-27T17:50:32.173Z,100.00
2023-06-27T17:53:02.807Z,100.00
2023-06-27T17:55:30.053Z,100.00
2023-06-27T17:57:59.668Z,100.00
2023-06-27T18:00:26.994Z,100.00
2023-06-27T18:02:55.114Z,100.00
2023-06-27T18:05:22.608Z,100.00
2023-06-27T18:07:51.115Z,100.00
2023-06-27T18:10:20.469Z,100.00
2023-06-27T18:12:48.081Z,100.00
2023-06-27T18:15:16.575Z,100.00
2023-06-27T18:17:45.432Z,100.00
2023-06-27T18:20:12.951Z,100.00
2023-06-27T18:22:40.430Z,100.00
2023-06-27T18:25:08.536Z,100.00
2023-06-27T18:27:35.904Z,100.00
2023-06-27T18:30:04.189Z,100.00
2023-06-27T18:32:31.595Z,100.00
2023-06-27T18:34:58.953Z,100.00
2023-06-27T18:37:26.605Z,100.00
2023-06-27T18:39:54.052Z,100.00
2023-06-27T18:42:21.835Z,100.00
2023-06-27T18:44:49.243Z,100.00
2023-06-27T18:47:17.005Z,100.00
2023-06-27T18:49:46.226Z,100.00
2023-06-27T18:52:15.281Z,100.00
2023-06-27T18:54:42.982Z,100.00
2023-06-27T18:57:12.890Z,100.00
2023-06-27T18:59:40.617Z,100.00
2023-06-27T19:02:08.572Z,100.00
2023-06-27T19:04:36.279Z,100.00
2023-06-27T19:07:04.141Z,100.00
2023-06-27T19:09:31.554Z,100.00
2023-06-27T19:11:59.319Z,100.00
2023-06-27T19:14:27.221Z,100.00
2023-06-27T19:16:55.160Z,100.00
2023-06-27T19:19:22.998Z,100.00
2023-06-27T19:21:51.657Z,100.00
2023-06-27T19:24:20.053Z,100.00
2023-06-27T19:26:47.759Z,100.00
2023-06-27T19:29:15.188Z,100.00
2023-06-27T19:31:42.670Z,100.00
2023-06-27T19:34:10.141Z,100.00
2023-06-27T19:36:37.600Z,100.00
2023-06-27T19:39:04.997Z,100.00
2023-06-27T19:41:32.426Z,100.00
2023-06-27T19:43:59.853Z,100.00
2023-06-27T19:46:27.260Z,100.00
2023-06-27T19:48:54.758Z,100.00
2023-06-27T19:51:22.054Z,100.00
2023-06-27T19:53:49.616Z,100.00
2023-06-27T19:56:16.942Z,100.00
2023-06-27T19:58:44.451Z,100.00
2023-06-27T20:01:13.418Z,100.00
2023-06-27T20:03:41.295Z,100.00
2023-06-27T20:06:09.901Z,100.00
2023-06-27T20:08:37.644Z,100.00
2023-06-27T20:11:05.377Z,100.00
2023-06-27T20:13:33.854Z,100.00
2023-06-27T20:16:01.544Z,100.00
2023-06-27T20:18:31.180Z,100.00
2023-06-27T20:20:58.915Z,100.00
2023-06-27T20:23:27.474Z,100.00
2023-06-27T20:25:55.211Z,100.00
2023-06-27T20:28:22.862Z,100.00
2023-06-27T20:30:50.492Z,100.00
2023-06-27T20:33:17.921Z,100.00
2023-06-27T20:35:45.574Z,100.00
2023-06-27T20:38:12.953Z,100.00
2023-06-27T20:40:40.813Z,100.00
2023-06-27T20:43:09.866Z,100.00
2023-06-27T20:45:38.169Z,100.00
2023-06-27T20:48:05.713Z,100.00
2023-06-27T20:50:33.143Z,100.00
2023-06-27T20:53:00.511Z,100.00
2023-06-27T20:55:28.448Z,100.00
2023-06-27T20:57:55.914Z,100.00
2023-06-27T21:00:23.496Z,100.00
2023-06-27T21:02:53.061Z,100.00
2023-06-27T21:05:20.522Z,100.00
2023-06-27T21:07:49.589Z,100.00
2023-06-27T21:10:17.094Z,100.00
2023-06-27T21:12:47.097Z,100.00
2023-06-27T21:15:14.514Z,100.00
2023-06-27T21:17:41.828Z,100.00
2023-06-27T21:20:09.762Z,100.00
2023-06-27T21:22:37.270Z,100.00
2023-06-27T21:25:05.090Z,100.00
2023-06-27T21:30:02.728Z,100.00
2023-06-27T21:32:30.017Z,100.00
2023-06-27T21:34:57.486Z,100.00
2023-06-27T21:37:25.296Z,100.00
2023-06-27T21:39:52.684Z,100.00
2023-06-27T21:42:20.025Z,100.00
2023-06-27T21:44:48.116Z,100.00
2023-06-27T21:47:15.610Z,100.00
2023-06-27T21:49:42.964Z,100.00
2023-06-27T21:52:10.302Z,100.00
2023-06-27T21:54:41.927Z,100.00
2023-06-27T21:57:09.373Z,100.00
2023-06-27T21:59:36.773Z,100.00
2023-06-27T22:02:04.238Z,100.00
2023-06-27T22:04:31.991Z,100.00
2023-06-27T22:06:59.618Z,100.00
2023-06-27T22:09:27.140Z,100.00
2023-06-27T22:11:54.460Z,100.00
2023-06-27T22:14:22.412Z,100.00
2023-06-27T22:16:49.733Z,100.00
2023-06-27T22:19:17.241Z,100.00
2023-06-27T22:21:48.646Z,100.00
2023-06-27T22:24:16.128Z,100.00
2023-06-27T22:26:49.544Z,100.00
2023-06-27T22:29:16.891Z,100.00
2023-06-27T22:31:46.702Z,100.00
2023-06-27T22:34:14.089Z,100.00
2023-06-27T22:36:41.349Z,100.00
2023-06-27T22:39:09.842Z,100.00
2023-06-27T22:41:37.174Z,100.00
2023-06-27T22:44:04.778Z,100.00
2023-06-27T22:46:32.264Z,100.00
2023-06-27T22:48:59.738Z,100.00
2023-06-27T22:51:27.031Z,100.00
2023-06-27T22:53:56.666Z,100.00
2023-06-27T22:56:25.080Z,100.00
2023-06-27T22:58:52.479Z,100.00
2023-06-27T23:01:19.811Z,100.00
2023-06-27T23:03:47.176Z,100.00
2023-06-27T23:06:14.653Z,100.00
2023-06-27T23:08:42.341Z,100.00
2023-06-27T23:11:09.706Z,100.00
2023-06-27T23:13:37.039Z,100.00
2023-06-27T23:16:12.728Z,100.00
2023-06-27T23:18:40.613Z,100.00
2023-06-27T23:21:14.388Z,100.00
2023-06-27T23:23:41.796Z,100.00
2023-06-27T23:26:17.883Z,100.00
2023-06-27T23:28:49.833Z,100.00
2023-06-27T23:31:19.062Z,100.00
2023-06-27T23:33:46.764Z,100.00
2023-06-27T23:36:14.737Z,100.00
2023-06-27T23:38:42.191Z,100.00
2023-06-27T23:41:10.570Z,100.00
2023-06-27T23:43:38.193Z,100.00
2023-06-27T23:46:05.662Z,100.00
2023-06-27T23:48:33.225Z,100.00
2023-06-27T23:51:01.356Z,100.00
2023-06-27T23:53:28.671Z,100.00
2023-06-27T23:55:56.035Z,100.00
2023-06-27T23:58:23.307Z,100.00
